Time;durP1;ratioP1;P1;durP2;ratioP2;P2;SDS_P1;SDS_P2;PMS_P1;PMS_P2;Temp;Humidity;BMP_temperature;BMP_pressure;BME280_temperature;BME280_humidity;BME280_pressure;Samples;Min_cycle;Max_cycle;Signal;HPM_P1;HPM_P2
2022/11/01 00:02:39;;;;;;;20.00;7.45;;;;;;;14.99;100.00;100625.09;10552577;28;20051;-74
2022/11/01 00:07:39;;;;;;;22.98;7.85;;;;;;;15.08;100.00;100631.88;10587476;28;20115;-75
2022/11/01 00:12:40;;;;;;;13.90;7.72;;;;;;;15.13;100.00;100627.66;10587578;28;20084;-75
2022/11/01 00:17:40;;;;;;;10.23;8.77;;;;;;;15.21;100.00;100622.66;10586986;28;20031;-74
2022/11/01 00:22:41;;;;;;;13.52;6.63;;;;;;;15.21;100.00;100611.75;10584685;28;20077;-74
2022/11/01 00:27:42;;;;;;;13.18;5.72;;;;;;;15.23;100.00;100617.81;10585187;28;20483;-74
2022/11/01 00:32:43;;;;;;;10.50;6.88;;;;;;;15.28;100.00;100598.00;10586939;27;20463;-74
2022/11/01 00:37:43;;;;;;;17.38;7.45;;;;;;;15.33;100.00;100606.31;10584833;28;20039;-74
2022/11/01 00:42:43;;;;;;;9.15;6.00;;;;;;;15.38;100.00;100625.56;10585609;28;20034;-74
2022/11/01 00:47:47;;;;;;;12.20;6.25;;;;;;;15.46;100.00;100602.53;10584442;28;20046;-74
2022/11/01 00:52:47;;;;;;;10.18;7.22;;;;;;;15.43;100.00;100584.72;10583817;28;20035;-74
2022/11/01 00:57:48;;;;;;;14.00;6.95;;;;;;;15.40;100.00;100578.91;10584198;28;20111;-74
2022/11/01 01:02:48;;;;;;;11.35;6.65;;;;;;;15.39;100.00;100578.09;10583630;28;20059;-74
2022/11/01 01:07:48;;;;;;;6.72;6.15;;;;;;;15.39;100.00;100574.53;10583980;28;20043;-74
2022/11/01 01:12:49;;;;;;;10.27;6.30;;;;;;;15.55;100.00;100591.00;10582711;28;20059;-74
2022/11/01 01:17:49;;;;;;;8.93;6.15;;;;;;;15.69;100.00;100583.44;10582567;28;20425;-74
2022/11/01 01:22:50;;;;;;;8.52;5.53;;;;;;;15.88;100.00;100572.38;10583785;28;20039;-74
2022/11/01 01:27:50;;;;;;;7.97;4.90;;;;;;;15.92;100.00;100571.66;10581649;28;20398;-74
2022/11/01 01:32:50;;;;;;;23.40;7.35;;;;;;;16.04;100.00;100580.63;10581677;28;20032;-73
2022/11/01 01:37:51;;;;;;;7.47;4.63;;;;;;;16.16;100.00;100577.06;10581823;28;20073;-74
2022/11/01 01:42:51;;;;;;;7.10;6.38;;;;;;;16.25;100.00;100570.13;10582199;28;20027;-73
2022/11/01 01:47:52;;;;;;;11.30;4.70;;;;;;;16.39;100.00;100563.28;10582099;28;20028;-74
2022/11/01 01:53:05;;;;;;;4.40;4.00;;;;;;;16.23;100.00;100572.28;10581407;28;20043;-74
2022/11/01 01:58:06;;;;;;;12.38;5.55;;;;;;;15.88;100.00;100577.84;10581783;28;20421;-75
2022/11/01 02:03:06;;;;;;;14.90;5.65;;;;;;;15.70;100.00;100576.94;10580661;28;20055;-74
2022/11/01 02:08:07;;;;;;;8.30;5.05;;;;;;;15.59;100.00;100588.63;10564048;28;20487;-74
2022/11/01 02:13:12;;;;;;;14.88;5.78;;;;;;;15.54;100.00;100592.09;10580852;28;20044;-74
2022/11/01 02:18:22;;;;;;;19.02;5.68;;;;;;;15.49;100.00;100594.69;10566001;28;20506;-74
2022/11/01 02:23:37;;;;;;;9.40;4.05;;;;;;;15.32;100.00;100618.31;10563903;28;20507;-75
2022/11/01 02:29:31;;;;;;;2.75;2.55;;;;;;;15.01;100.00;100628.44;10563841;28;20035;-74
2022/11/01 02:34:42;;;;;;;2.20;2.10;;;;;;;14.74;100.00;100619.84;10491652;28;20118;-75
2022/11/01 02:39:47;;;;;;;7.03;3.30;;;;;;;14.64;100.00;100628.56;10580574;28;20455;-74
2022/11/01 02:45:00;;;;;;;1.98;1.48;;;;;;;14.49;100.00;100625.41;10579693;28;20116;-75
2022/11/01 02:50:04;;;;;;;3.20;1.55;;;;;;;14.30;100.00;100634.66;10580452;28;20383;-74
2022/11/01 02:55:28;;;;;;;5.63;1.45;;;;;;;14.19;100.00;100656.13;10581389;28;20050;-74
2022/11/01 03:00:31;;;;;;;3.10;1.48;;;;;;;14.18;100.00;100668.09;10579366;28;20031;-74
2022/11/01 03:05:59;;;;;;;7.22;1.92;;;;;;;14.10;100.00;100668.41;10581550;28;20047;-74
2022/11/01 03:11:04;;;;;;;3.30;2.10;;;;;;;14.04;100.00;100673.91;10584650;28;20031;-80
2022/11/01 03:16:22;;;;;;;1.00;1.00;;;;;;;13.94;100.00;100679.88;10589213;28;20035;-80
2022/11/01 03:21:22;;;;;;;7.25;2.05;;;;;;;13.88;100.00;100697.09;10571215;28;20391;-80
2022/11/01 03:26:24;;;;;;;7.28;1.27;;;;;;;13.82;100.00;100706.19;10569948;28;20024;-79
2022/11/01 03:31:28;;;;;;;6.72;2.17;;;;;;;13.84;100.00;100699.44;10590269;28;20024;-79
2022/11/01 03:36:37;;;;;;;1.63;1.20;;;;;;;13.76;100.00;100717.97;10572322;28;20104;-79
2022/11/01 03:41:40;;;;;;;8.40;2.13;;;;;;;13.68;100.00;100730.75;10586899;28;20077;-78
2022/11/01 03:46:41;;;;;;;13.40;2.97;;;;;;;13.56;100.00;100727.13;10591358;28;20467;-78
2022/11/01 03:51:41;;;;;;;8.05;2.13;;;;;;;13.69;100.00;100731.63;10569560;28;20118;-77
2022/11/01 03:56:41;;;;;;;15.15;4.25;;;;;;;13.84;100.00;100744.88;10586182;28;20084;-77
2022/11/01 04:01:42;;;;;;;18.10;3.30;;;;;;;13.67;100.00;100755.50;10586167;28;20066;-77
2022/11/01 04:06:42;;;;;;;4.65;2.67;;;;;;;13.63;100.00;100762.44;10584788;28;20077;-76
2022/11/01 04:11:43;;;;;;;9.25;4.07;;;;;;;13.57;100.00;100775.03;10586381;28;20336;-76
2022/11/01 04:22:03;;;;;;;9.05;2.47;;;;;;;13.29;100.00;100782.75;10585294;28;20045;-75
2022/11/01 04:27:03;;;;;;;8.25;2.42;;;;;;;13.18;100.00;100782.38;10568159;28;20031;-76
2022/11/01 04:32:04;;;;;;;5.57;2.22;;;;;;;13.05;100.00;100796.03;10566664;28;20488;-74
2022/11/01 04:37:04;;;;;;;11.35;3.20;;;;;;;12.97;100.00;100794.38;10585858;28;20034;-76
2022/11/01 04:42:04;;;;;;;11.05;3.13;;;;;;;12.90;100.00;100807.16;10566745;28;20568;-75
2022/11/01 04:47:05;;;;;;;10.25;2.83;;;;;;;12.91;100.00;100805.28;10585495;28;20122;-76
2022/11/01 04:52:06;;;;;;;13.52;2.95;;;;;;;12.77;100.00;100807.22;10583443;28;20498;-76
2022/11/01 04:57:06;;;;;;;10.40;4.13;;;;;;;12.76;100.00;100792.81;10585618;28;20372;-76
2022/11/01 05:02:07;;;;;;;10.48;2.67;;;;;;;12.73;100.00;100798.66;10565794;28;20031;-76
2022/11/01 05:07:07;;;;;;;9.77;3.13;;;;;;;12.67;100.00;100787.81;10590191;28;20059;-75
2022/11/01 05:12:08;;;;;;;5.50;2.05;;;;;;;12.66;100.00;100802.44;10585641;28;20432;-76
2022/11/01 05:17:08;;;;;;;10.73;3.45;;;;;;;12.78;100.00;100793.41;10565500;28;20062;-75
2022/11/01 05:22:08;;;;;;;9.35;3.13;;;;;;;12.86;100.00;100810.50;10583438;28;20023;-76
2022/11/01 05:27:09;;;;;;;6.18;2.92;;;;;;;12.91;100.00;100813.44;10583130;28;20106;-74
2022/11/01 05:32:09;;;;;;;8.20;3.72;;;;;;;12.86;100.00;100813.22;10461177;28;20115;-79
2022/11/01 05:37:10;;;;;;;2.83;2.60;;;;;;;12.82;99.71;100840.00;10594621;28;20060;-77
2022/11/01 05:42:10;;;;;;;7.43;4.38;;;;;;;12.84;97.14;100831.66;10598010;28;20032;-80
2022/11/01 05:47:10;;;;;;;6.35;2.08;;;;;;;12.77;98.53;100835.22;10584017;28;20058;-80
2022/11/01 05:52:11;;;;;;;7.20;2.20;;;;;;;12.88;96.51;100822.84;10583214;28;20122;-77
2022/11/01 05:57:11;;;;;;;12.65;3.53;;;;;;;13.05;95.04;100831.38;10563384;28;20043;-76
2022/11/01 06:02:12;;;;;;;14.73;3.83;;;;;;;12.98;96.45;100838.69;10581455;28;20092;-75
2022/11/01 06:07:12;;;;;;;10.52;3.67;;;;;;;12.92;96.92;100847.72;10569708;28;20544;-76
2022/11/01 06:12:12;;;;;;;12.57;3.40;;;;;;;13.01;94.71;100858.13;10584986;28;20442;-76
2022/11/01 06:17:13;;;;;;;14.20;4.32;;;;;;;13.07;93.67;100859.16;10587058;28;20032;-76
2022/11/01 06:22:14;;;;;;;9.88;3.38;;;;;;;13.12;92.01;100859.34;10567415;28;20042;-76
2022/11/01 06:27:17;;;;;;;11.32;5.32;;;;;;;13.17;93.87;100875.84;10586442;28;20039;-77
2022/11/01 06:37:44;;;;;;;5.13;2.80;;;;;;;13.06;93.48;100900.16;10575536;28;20150;-75
2022/11/01 06:43:08;;;;;;;22.45;3.97;;;;;;;12.99;92.94;100906.44;10582960;28;20067;-76
2022/11/01 06:53:50;;;;;;;15.68;4.80;;;;;;;12.93;95.73;100928.22;10408610;28;20116;-76
2022/11/01 06:58:51;;;;;;;6.13;2.78;;;;;;;12.99;95.96;100933.63;10530989;28;20047;-75
2022/11/01 07:03:52;;;;;;;13.70;4.30;;;;;;;13.19;94.65;100958.06;10552831;28;20484;-76
2022/11/01 07:08:53;;;;;;;8.93;3.33;;;;;;;13.38;93.73;100961.78;10591492;28;20051;-75
2022/11/01 07:13:53;;;;;;;18.75;4.15;;;;;;;13.50;92.00;100989.16;10588300;28;20020;-74
2022/11/01 07:24:58;;;;;;;16.17;3.58;;;;;;;13.49;91.66;101015.50;10460657;28;20029;-75
2022/11/01 07:30:17;;;;;;;14.80;4.60;;;;;;;13.63;91.53;101024.50;10584386;28;20139;-75
2022/11/01 07:35:17;;;;;;;17.40;5.43;;;;;;;14.09;90.89;101037.06;10593127;28;20059;-75
2022/11/01 07:40:18;;;;;;;11.80;3.20;;;;;;;14.18;89.60;101041.19;10589473;28;20044;-76
2022/11/01 07:45:18;;;;;;;12.65;3.67;;;;;;;13.78;89.88;101062.31;10589543;28;20436;-75
2022/11/01 07:50:19;;;;;;;18.50;4.35;;;;;;;13.85;91.29;101062.31;10589195;28;20031;-75
2022/11/01 07:55:19;;;;;;;5.75;3.10;;;;;;;14.49;89.12;101064.09;10569881;28;20036;-75
2022/11/01 08:00:20;;;;;;;17.15;4.30;;;;;;;14.63;88.25;101076.59;10585219;28;20040;-75
2022/11/01 08:05:20;;;;;;;15.20;5.22;;;;;;;14.80;85.75;101076.03;10569824;28;20406;-75
2022/11/01 08:10:21;;;;;;;10.70;4.85;;;;;;;14.99;83.62;101096.88;10584918;28;20537;-75
2022/11/01 08:15:21;;;;;;;22.65;3.50;;;;;;;14.99;82.39;101088.69;10586463;28;20114;-75
2022/11/01 08:20:22;;;;;;;14.55;4.85;;;;;;;15.12;83.33;101098.66;10584961;28;20058;-75
2022/11/01 08:25:23;;;;;;;17.42;4.25;;;;;;;15.39;82.87;101106.63;10585802;28;20084;-74
2022/11/01 08:30:23;;;;;;;9.43;3.95;;;;;;;15.52;83.66;101125.59;10567791;28;20037;-75
2022/11/01 08:35:23;;;;;;;21.10;3.45;;;;;;;15.09;82.66;101119.06;10586825;28;20135;-76
2022/11/01 08:40:24;;;;;;;13.63;4.03;;;;;;;15.66;82.41;101129.84;10585834;28;20050;-76
2022/11/01 08:45:25;;;;;;;7.70;3.05;;;;;;;15.89;81.18;101142.03;10568745;28;20059;-75
2022/11/01 08:50:25;;;;;;;20.30;4.22;;;;;;;15.84;81.39;101148.19;10566888;28;20043;-75
2022/11/01 08:55:26;;;;;;;8.73;4.10;;;;;;;16.01;79.10;101143.78;10584052;28;20046;-75
2022/11/01 09:00:29;;;;;;;11.55;4.55;;;;;;;16.11;79.30;101170.56;10567335;28;20120;-75
2022/11/01 09:05:30;;;;;;;16.15;4.22;;;;;;;16.34;79.27;101172.63;10590629;28;20059;-76
2022/11/01 09:10:31;;;;;;;15.18;4.53;;;;;;;16.51;78.03;101173.66;10571377;28;20059;-76
2022/11/01 09:15:32;;;;;;;14.15;3.28;;;;;;;16.49;80.02;101200.38;10566581;28;20039;-76
2022/11/01 09:20:32;;;;;;;8.38;3.38;;;;;;;16.22;80.22;101199.88;10600631;27;20122;-76
2022/11/01 09:25:33;;;;;;;4.75;3.05;;;;;;;16.41;78.17;101200.72;10571272;28;20023;-75
2022/11/01 09:30:33;;;;;;;3.53;3.13;;;;;;;16.33;81.11;101216.56;10583440;28;20058;-75
2022/11/01 09:35:51;;;;;;;10.60;2.45;;;;;;;17.17;80.93;101215.69;10589120;28;20035;-75
2022/11/01 09:41:23;;;;;;;5.85;3.10;;;;;;;17.13;78.60;101217.25;10570006;28;20031;-75
2022/11/01 09:46:26;;;;;;;15.77;3.38;;;;;;;17.52;77.48;101222.34;10582917;28;20028;-75
2022/11/01 09:51:28;;;;;;;7.13;3.58;;;;;;;17.80;72.84;101219.75;10583721;28;20122;-75
2022/11/01 09:56:50;;;;;;;7.60;3.05;;;;;;;17.72;77.08;101222.81;10583667;28;20383;-74
2022/11/01 10:02:18;;;;;;;10.93;4.20;;;;;;;17.87;74.15;101242.41;10582937;28;20513;-75
2022/11/01 10:07:22;;;;;;;6.72;3.25;;;;;;;17.95;72.76;101248.59;10583437;28;20039;-76
2022/11/01 10:12:45;;;;;;;17.58;3.08;;;;;;;18.21;76.56;101250.84;10581238;28;20028;-75
2022/11/01 10:17:51;;;;;;;7.72;2.38;;;;;;;18.47;73.40;101248.66;10582644;28;20366;-75
2022/11/01 10:23:03;;;;;;;5.75;2.63;;;;;;;18.48;72.71;101266.78;10575870;28;20024;-75
2022/11/01 10:28:31;;;;;;;15.82;5.07;;;;;;;18.38;70.98;101263.81;10576077;28;20042;-75
2022/11/01 10:33:40;;;;;;;10.02;3.53;;;;;;;18.35;72.15;101284.34;10581894;28;20039;-75
2022/11/01 10:38:48;;;;;;;13.02;4.40;;;;;;;18.12;72.19;101285.16;10576182;28;20020;-76
2022/11/01 10:43:51;;;;;;;8.10;3.10;;;;;;;18.87;70.44;101280.81;10589916;27;20032;-75
2022/11/01 10:48:54;;;;;;;4.38;2.75;;;;;;;19.02;72.49;101284.69;10590197;28;20487;-75
2022/11/01 10:53:57;;;;;;;7.82;3.47;;;;;;;18.85;68.40;101277.47;10590793;28;20458;-75
2022/11/01 10:59:08;;;;;;;7.93;4.13;;;;;;;18.97;70.80;101286.50;10575222;28;20028;-75
2022/11/01 11:04:12;;;;;;;8.15;3.40;;;;;;;18.52;69.62;101279.78;10574676;28;20055;-75
2022/11/01 11:09:20;;;;;;;5.70;3.08;;;;;;;18.81;68.41;101280.69;10572540;28;20044;-74
2022/11/01 11:14:20;;;;;;;3.58;2.40;;;;;;;18.73;67.25;101281.09;10573043;28;20098;-75
2022/11/01 11:19:24;;;;;;;3.03;2.03;;;;;;;18.73;68.50;101266.50;10555994;28;20116;-74
2022/11/01 11:24:29;;;;;;;8.93;3.55;;;;;;;18.73;67.68;101258.28;10590756;28;20477;-74
2022/11/01 11:29:49;;;;;;;3.30;2.67;;;;;;;18.76;69.22;101274.25;10558211;28;20034;-75
2022/11/01 11:34:54;;;;;;;10.32;3.25;;;;;;;18.87;72.34;101262.41;10588995;28;20450;-75
2022/11/01 11:40:13;;;;;;;8.60;2.67;;;;;;;19.24;70.22;101275.75;10573599;28;20055;-75
2022/11/01 11:45:26;;;;;;;9.10;3.03;;;;;;;18.94;67.35;101278.75;10573795;28;20184;-74
2022/11/01 11:50:32;;;;;;;7.75;2.33;;;;;;;18.79;65.01;101288.34;10589545;28;20379;-75
2022/11/01 11:55:41;;;;;;;5.03;2.60;;;;;;;18.88;68.42;101269.56;10570490;28;20044;-75
2022/11/01 12:00:42;;;;;;;13.38;3.33;;;;;;;18.75;64.66;101251.47;10553382;28;20407;-74
2022/11/01 12:06:09;;;;;;;5.80;2.58;;;;;;;19.00;65.19;101201.75;10569087;28;20108;-75
2022/11/01 12:11:10;;;;;;;4.65;2.67;;;;;;;18.40;66.47;101259.75;10583015;28;20433;-75
2022/11/01 12:16:23;;;;;;;3.30;2.30;;;;;;;17.49;72.01;101263.88;10584300;28;20097;-75
2022/11/01 12:21:38;;;;;;;3.30;2.15;;;;;;;17.86;73.09;101248.09;10586391;28;20034;-75
2022/11/01 12:26:39;;;;;;;2.08;1.83;;;;;;;17.32;72.01;101253.56;10587825;28;20024;-75
2022/11/01 12:31:40;;;;;;;5.25;2.47;;;;;;;17.71;73.85;101262.25;10554132;28;20077;-74
2022/11/01 12:36:57;;;;;;;4.75;2.05;;;;;;;17.87;71.96;101247.88;10569187;28;20180;-75
2022/11/01 12:41:59;;;;;;;17.92;3.50;;;;;;;17.26;76.76;101256.41;10570611;28;20093;-74
2022/11/01 12:47:16;;;;;;;3.33;2.25;;;;;;;16.89;75.43;101256.53;10588861;28;20431;-75
2022/11/01 12:52:27;;;;;;;;;;;;;;;17.66;76.53;101249.25;10568680;28;20038;-74
2022/11/01 12:57:28;;;;;;;2.15;1.95;;;;;;;18.06;67.90;101247.75;10587136;28;19908;-74
2022/11/01 13:02:52;;;;;;;9.25;3.33;;;;;;;18.08;68.68;101246.44;10571173;28;20035;-75
2022/11/01 13:08:08;;;;;;;7.50;2.47;;;;;;;17.76;71.44;101248.66;10564974;28;20047;-74
2022/11/01 13:13:15;;;;;;;2.72;1.63;;;;;;;17.86;74.03;101248.94;10570626;28;20031;-74
2022/11/01 13:18:28;;;;;;;5.22;2.28;;;;;;;17.50;72.54;101263.63;10570348;28;20059;-74
2022/11/01 13:23:53;;;;;;;8.18;2.05;;;;;;;17.10;76.59;101249.69;10567752;28;20059;-74
2022/11/01 13:29:13;;;;;;;4.25;2.38;;;;;;;16.59;74.27;101254.56;10582818;28;20400;-74
2022/11/01 13:34:37;;;;;;;9.30;2.30;;;;;;;16.51;76.28;101241.19;10586627;28;20027;-75
2022/11/01 13:39:44;;;;;;;2.10;1.88;;;;;;;16.61;75.84;101226.97;10584968;28;20073;-75
2022/11/01 13:44:48;;;;;;;3.58;2.38;;;;;;;16.66;77.29;101249.84;10583689;28;20067;-74
2022/11/01 13:49:59;;;;;;;6.82;1.58;;;;;;;16.72;76.80;101242.63;10585573;28;20028;-74
2022/11/01 13:55:22;;;;;;;6.95;3.15;;;;;;;16.66;75.51;101240.81;10582078;28;20113;-74
2022/11/01 14:00:40;;;;;;;7.70;2.83;;;;;;;16.61;77.03;101244.19;10583304;28;20023;-74
2022/11/01 14:05:41;;;;;;;3.15;2.70;;;;;;;16.45;76.85;101262.06;10584506;28;20060;-73
2022/11/01 14:10:46;;;;;;;3.42;1.88;;;;;;;16.32;77.53;101254.00;10564071;28;20046;-74
2022/11/01 14:15:53;;;;;;;6.90;2.92;;;;;;;16.34;77.98;101264.72;10582426;28;20031;-73
2022/11/01 14:20:54;;;;;;;4.68;3.58;;;;;;;16.63;76.11;101255.75;10582697;28;20027;-74
2022/11/01 14:26:20;;;;;;;8.65;2.88;;;;;;;16.65;77.88;101241.84;10582534;28;20032;-74
2022/11/01 14:31:22;;;;;;;6.97;2.20;;;;;;;16.20;79.35;101242.97;10582717;28;20032;-74
2022/11/01 14:36:24;;;;;;;6.45;2.63;;;;;;;15.89;78.83;101243.09;10585015;28;20117;-74
2022/11/01 14:41:25;;;;;;;11.35;2.25;;;;;;;15.80;80.35;101237.94;10580416;28;20490;-74
2022/11/01 14:46:27;;;;;;;6.32;2.90;;;;;;;15.84;79.97;101241.03;10581120;28;20115;-74
2022/11/01 14:51:56;;;;;;;2.63;1.55;;;;;;;16.03;80.40;101236.44;10564608;28;20032;-74
2022/11/01 14:56:57;;;;;;;4.32;2.30;;;;;;;16.17;78.54;101235.25;10580639;28;20114;-73
2022/11/01 15:02:04;;;;;;;7.25;2.67;;;;;;;16.34;78.90;101232.75;10582464;28;20036;-73
2022/11/01 15:07:23;;;;;;;9.00;2.35;;;;;;;16.01;78.60;101231.19;10551997;28;20058;-73
2022/11/01 15:12:24;;;;;;;3.97;1.73;;;;;;;15.70;79.18;101242.22;10589198;28;20055;-74
2022/11/01 15:17:29;;;;;;;7.80;2.97;;;;;;;15.57;82.17;101208.50;10587741;28;20024;-74
2022/11/01 15:22:30;;;;;;;4.57;1.88;;;;;;;15.32;81.61;101205.75;10587126;28;20027;-73
2022/11/01 15:27:40;;;;;;;4.30;2.55;;;;;;;15.26;83.57;101214.81;10570945;28;20028;-73
2022/11/01 15:32:41;;;;;;;7.00;2.33;;;;;;;15.19;84.94;101210.44;10589186;28;20038;-74
2022/11/01 15:37:47;;;;;;;12.60;3.08;;;;;;;15.30;84.02;101212.47;10587617;28;20027;-74
2022/11/01 15:42:55;;;;;;;10.97;2.83;;;;;;;15.38;83.32;101209.50;10571017;28;20153;-75
2022/11/01 15:47:58;;;;;;;10.20;2.47;;;;;;;15.34;83.51;101222.72;10573437;28;20588;-74
2022/11/01 15:53:00;;;;;;;9.73;2.08;;;;;;;15.39;82.81;101227.53;10589011;28;20059;-73
2022/11/01 15:58:29;;;;;;;2.83;2.55;;;;;;;15.37;84.70;101226.91;10553889;28;20028;-74
2022/11/01 16:03:39;;;;;;;10.45;2.30;;;;;;;15.34;84.10;101219.16;10586737;28;20128;-73
2022/11/01 16:08:41;;;;;;;17.88;3.63;;;;;;;15.31;84.09;101204.06;10585152;28;20043;-73
2022/11/01 16:13:46;;;;;;;12.13;3.22;;;;;;;15.26;84.07;101214.81;10585432;28;20039;-73
2022/11/01 16:18:47;;;;;;;15.45;3.72;;;;;;;15.23;84.38;101217.97;10554206;28;20122;-74
2022/11/01 16:24:10;;;;;;;8.07;2.67;;;;;;;15.22;84.10;101212.72;10586709;28;20439;-73
2022/11/01 16:29:13;;;;;;;9.63;3.35;;;;;;;15.16;85.40;101216.38;10584683;28;20055;-73
2022/11/01 16:34:27;;;;;;;5.10;3.08;;;;;;;15.22;85.21;101210.00;10584841;28;20514;-74
2022/11/01 16:39:29;;;;;;;13.73;3.25;;;;;;;15.10;84.60;101193.53;10584597;28;20042;-73
2022/11/01 16:44:30;;;;;;;7.28;3.05;;;;;;;15.05;85.49;101205.06;10584071;28;20371;-74
2022/11/01 16:49:30;;;;;;;11.55;3.28;;;;;;;15.04;86.41;101230.69;10583848;28;20046;-73
2022/11/01 16:54:31;;;;;;;11.07;2.42;;;;;;;15.09;84.92;101225.44;10584544;28;20100;-73
2022/11/01 16:59:36;;;;;;;5.88;1.88;;;;;;;15.16;84.68;101230.00;10584537;28;20036;-74
2022/11/01 17:04:37;;;;;;;7.18;2.85;;;;;;;15.05;86.97;101220.63;10565728;28;20051;-73
2022/11/01 17:09:38;;;;;;;11.43;2.42;;;;;;;15.05;87.18;101220.63;10584442;28;20114;-73
2022/11/01 17:14:39;;;;;;;7.25;3.10;;;;;;;15.02;87.74;101224.59;10567143;28;20088;-73
2022/11/01 17:19:40;;;;;;;10.10;2.78;;;;;;;14.97;88.07;101213.53;10583272;28;20467;-73
2022/11/01 17:24:40;;;;;;;9.00;2.63;;;;;;;14.94;87.25;101207.69;10565386;28;20368;-73
2022/11/01 17:29:41;;;;;;;6.15;2.95;;;;;;;14.94;87.71;101216.69;10583613;28;20074;-74
2022/11/01 17:34:42;;;;;;;4.97;3.47;;;;;;;14.93;87.07;101239.56;10583977;28;20096;-73
2022/11/01 17:39:42;;;;;;;13.23;2.50;;;;;;;14.78;86.92;101228.13;10582731;28;20532;-73
2022/11/01 17:44:43;;;;;;;6.05;2.30;;;;;;;14.74;87.76;101230.44;10583318;28;20055;-74
2022/11/01 17:49:43;;;;;;;5.45;2.22;;;;;;;14.81;88.86;101263.13;10566514;28;20222;-73
2022/11/01 17:54:44;;;;;;;15.23;3.03;;;;;;;14.74;87.92;101230.44;10564133;28;20029;-73
2022/11/01 17:59:44;;;;;;;9.27;3.13;;;;;;;14.73;88.29;101250.56;10564313;28;20032;-74
2022/11/01 18:04:44;;;;;;;7.82;2.47;;;;;;;14.78;88.16;101231.69;10582287;28;20055;-73
2022/11/01 18:09:45;;;;;;;4.32;2.20;;;;;;;14.83;88.76;101253.66;10583991;28;20169;-73
2022/11/01 18:15:18;;;;;;;4.53;1.95;;;;;;;14.64;90.61;101230.91;10582808;28;20177;-74
2022/11/01 18:20:38;;;;;;;7.53;2.60;;;;;;;14.44;92.21;101251.91;10565867;28;20427;-74
2022/11/01 18:25:43;;;;;;;3.13;1.95;;;;;;;14.15;93.67;101275.84;10583111;28;20034;-74
2022/11/01 18:30:48;;;;;;;3.03;2.45;;;;;;;13.91;95.15;101285.53;10581298;28;20024;-73
2022/11/01 18:36:11;;;;;;;4.50;2.33;;;;;;;13.83;96.50;101271.28;10551975;28;20023;-73
2022/11/01 18:41:15;;;;;;;5.05;1.88;;;;;;;13.85;97.31;101275.47;10598387;28;20428;-74
2022/11/01 18:46:18;;;;;;;2.45;2.25;;;;;;;13.87;97.79;101291.59;10601095;28;20039;-73
2022/11/01 18:51:25;;;;;;;4.88;1.88;;;;;;;13.85;96.35;101285.53;10575554;28;20060;-73
2022/11/01 18:56:25;;;;;;;2.55;1.80;;;;;;;13.90;97.20;101293.91;10589517;28;20040;-74
2022/11/01 19:01:32;;;;;;;2.38;1.42;;;;;;;13.93;96.71;101296.19;10588167;28;20483;-73
2022/11/01 19:06:32;;;;;;;5.78;1.67;;;;;;;13.93;98.09;101286.13;10588941;28;20070;-74
2022/11/01 19:11:33;;;;;;;4.95;1.40;;;;;;;13.65;100.00;101285.50;10595996;28;20078;-75
2022/11/01 19:16:33;;;;;;;10.45;3.08;;;;;;;13.43;100.00;101293.00;10554162;28;20028;-76
2022/11/01 19:21:34;;;;;;;11.48;3.67;;;;;;;13.19;100.00;101302.56;10588209;28;20051;-79
2022/11/01 19:26:35;;;;;;;9.35;2.50;;;;;;;13.06;100.00;101278.06;10590888;28;20028;-81
2022/11/01 19:31:36;;;;;;;3.03;2.67;;;;;;;12.90;100.00;101301.84;10587490;28;20047;-79
2022/11/01 19:36:38;;;;;;;5.80;3.40;;;;;;;12.70;100.00;101284.59;10569483;28;20035;-80
2022/11/01 19:41:38;;;;;;;1.83;1.73;;;;;;;12.63;100.00;101272.88;10562216;28;20039;-78
2022/11/01 19:46:38;;;;;;;9.60;2.65;;;;;;;12.63;100.00;101275.59;10591260;28;20034;-79
2022/11/01 19:51:39;;;;;;;6.22;2.08;;;;;;;12.61;100.00;101259.50;10587486;28;20027;-79
2022/11/01 19:56:39;;;;;;;7.70;2.72;;;;;;;12.67;100.00;101241.56;10586506;28;20027;-79
2022/11/01 20:01:44;;;;;;;7.85;2.88;;;;;;;12.70;100.00;101233.84;10554183;28;20039;-81
2022/11/01 20:06:49;;;;;;;12.45;2.17;;;;;;;12.67;100.00;101227.97;10589665;28;20079;-78
2022/11/01 20:11:50;;;;;;;25.55;3.42;;;;;;;12.63;100.00;101234.81;10585807;28;20042;-78
2022/11/01 20:16:50;;;;;;;8.85;4.30;;;;;;;12.56;100.00;101230.22;10585969;28;20374;-78
2022/11/01 20:21:51;;;;;;;4.72;2.85;;;;;;;12.51;100.00;101213.69;10586430;28;20036;-80
2022/11/01 20:26:52;;;;;;;4.60;2.55;;;;;;;12.60;100.00;101200.75;10587326;28;20032;-78
2022/11/01 20:31:52;;;;;;;7.60;3.38;;;;;;;12.61;100.00;101209.75;10586061;28;20427;-78
2022/11/01 20:36:52;;;;;;;7.15;2.53;;;;;;;12.47;100.00;101217.84;10584978;28;20028;-78
2022/11/01 20:41:53;;;;;;;13.70;3.92;;;;;;;12.37;100.00;101224.69;10575253;28;20100;-78
2022/11/01 20:46:53;;;;;;;5.75;2.80;;;;;;;12.30;100.00;101213.78;10589228;28;20478;-78
2022/11/01 20:51:54;;;;;;;6.72;2.25;;;;;;;12.18;100.00;101218.94;10586121;28;20028;-78
2022/11/01 20:56:54;;;;;;;4.63;1.95;;;;;;;12.08;100.00;101229.34;10567796;28;20387;-80
2022/11/01 21:01:54;;;;;;;2.67;1.80;;;;;;;12.00;100.00;101229.50;10585150;28;20125;-79
2022/11/01 21:06:55;;;;;;;7.13;3.47;;;;;;;12.05;100.00;101229.72;10582765;28;20055;-77
2022/11/01 21:11:56;;;;;;;8.45;2.80;;;;;;;12.12;100.00;101256.91;10584551;28;20491;-75
2022/11/01 21:16:57;;;;;;;9.35;2.60;;;;;;;12.03;100.00;101259.81;10583201;28;20036;-76
2022/11/01 21:21:58;;;;;;;4.13;2.17;;;;;;;12.04;100.00;101252.50;10584340;28;20035;-77
2022/11/01 21:27:11;;;;;;;6.97;3.03;;;;;;;12.13;100.00;101259.44;10583714;28;20447;-75
2022/11/01 21:32:33;;;;;;;11.20;2.95;;;;;;;12.07;100.00;101235.81;10582714;28;20518;-75
2022/11/01 21:37:34;;;;;;;7.10;1.67;;;;;;;12.14;100.00;101255.69;10565889;28;20058;-75
2022/11/01 21:42:34;;;;;;;11.60;2.20;;;;;;;12.12;100.00;101248.78;10584030;28;20042;-75
2022/11/01 21:47:35;;;;;;;13.57;3.20;;;;;;;12.07;100.00;101249.38;10566580;28;20458;-75
2022/11/01 21:52:35;;;;;;;4.85;2.60;;;;;;;12.15;100.00;101267.38;10582351;28;20182;-76
2022/11/01 21:57:36;;;;;;;3.53;2.47;;;;;;;12.12;100.00;101286.78;10582030;28;20088;-78
2022/11/01 22:02:45;;;;;;;12.68;3.75;;;;;;;12.04;100.00;101252.50;10588102;28;20042;-80
2022/11/01 22:07:46;;;;;;;2.40;1.95;;;;;;;12.02;100.00;101241.81;10579427;28;20078;-80
2022/11/01 22:12:46;;;;;;;4.63;1.73;;;;;;;11.99;100.00;101242.22;10582619;28;20490;-79
2022/11/01 22:17:46;;;;;;;10.45;3.10;;;;;;;12.02;100.00;101243.69;10581107;28;20043;-79
2022/11/01 22:22:47;;;;;;;9.93;2.72;;;;;;;12.02;100.00;101244.53;10580535;28;20047;-77
2022/11/01 22:27:47;;;;;;;20.75;4.28;;;;;;;12.07;100.00;101249.38;10582693;28;20047;-81
2022/11/01 22:32:48;;;;;;;4.70;3.15;;;;;;;11.95;100.00;101235.50;10583969;28;20024;-82
2022/11/01 22:37:48;;;;;;;6.43;2.92;;;;;;;11.93;100.00;101244.88;10566893;28;20039;-81
2022/11/01 22:42:51;;;;;;;14.55;2.95;;;;;;;11.86;100.00;101232.09;10583106;28;20059;-80
2022/11/01 22:47:52;;;;;;;9.43;3.10;;;;;;;11.78;100.00;101232.25;10565483;28;20055;-79
2022/11/01 22:52:52;;;;;;;5.35;2.20;;;;;;;11.76;100.00;101242.44;10580490;28;20114;-79
2022/11/01 22:58:02;;;;;;;7.43;2.28;;;;;;;11.72;100.00;101234.91;10582045;28;20386;-78
2022/11/01 23:03:09;;;;;;;2.15;1.65;;;;;;;11.62;100.00;101246.09;10580078;28;20040;-75
2022/11/01 23:08:20;;;;;;;8.50;2.92;;;;;;;11.56;100.00;101241.44;10581828;28;20386;-75
2022/11/01 23:18:51;;;;;;;3.88;1.92;;;;;;;11.23;100.00;101233.84;10582226;28;20035;-73
2022/11/01 23:23:52;;;;;;;5.03;1.92;;;;;;;11.17;100.00;101221.91;10581061;28;20165;-72
2022/11/01 23:28:53;;;;;;;4.75;2.58;;;;;;;11.34;100.00;101221.66;10584949;28;20035;-72
2022/11/01 23:33:54;;;;;;;6.32;1.85;;;;;;;11.32;100.00;101208.25;10586313;28;20035;-72
2022/11/01 23:38:56;;;;;;;9.10;3.33;;;;;;;11.30;100.00;101209.53;10588647;28;20046;-72